createdAt,value
2022-08-25T00:01:32.384Z,6.85
2022-08-25T00:04:00.420Z,7.35
2022-08-25T00:06:28.636Z,6.53
2022-08-25T00:08:59.560Z,7.03
2022-08-25T00:11:30.060Z,6.80
2022-08-25T00:14:01.052Z,6.72
2022-08-25T00:16:30.157Z,7.20
2022-08-25T00:19:01.380Z,7.88
2022-08-25T00:21:28.327Z,7.63
2022-08-25T00:23:54.996Z,7.35
2022-08-25T00:26:22.834Z,7.60
2022-08-25T00:28:49.512Z,7.30
2022-08-25T00:31:20.410Z,6.80
2022-08-25T00:33:48.957Z,7.63
2022-08-25T00:36:16.845Z,7.80
2022-08-25T00:38:47.572Z,7.38
2022-08-25T00:41:19.926Z,6.43
2022-08-25T00:43:56.886Z,7.15
2022-08-25T00:46:30.163Z,8.40
2022-08-25T00:49:07.342Z,7.20
2022-08-25T00:51:44.298Z,6.53
2022-08-25T00:54:17.535Z,7.63
2022-08-25T00:56:45.476Z,7.45
2022-08-25T00:59:13.963Z,7.07
2022-08-25T01:01:40.901Z,7.93
2022-08-25T01:04:07.881Z,7.68
2022-08-25T01:06:38.703Z,7.97
2022-08-25T01:09:07.363Z,7.03
2022-08-25T01:11:35.952Z,8.03
2022-08-25T01:14:06.565Z,7.68
2022-08-25T01:16:38.155Z,7.90
2022-08-25T01:19:06.850Z,6.70
2022-08-25T01:21:40.587Z,7.10
2022-08-25T01:24:10.686Z,7.07
2022-08-25T01:26:37.419Z,8.15
2022-08-25T01:29:21.166Z,7.85
2022-08-25T01:31:57.663Z,8.18
2022-08-25T01:34:26.713Z,8.30
2022-08-25T01:36:54.591Z,7.40
2022-08-25T01:39:22.341Z,7.65
2022-08-25T01:41:51.297Z,7.93
2022-08-25T01:44:19.359Z,7.80
2022-08-25T01:46:46.047Z,7.38
2022-08-25T01:49:12.824Z,7.97
2022-08-25T01:51:47.206Z,8.68
2022-08-25T01:54:13.954Z,8.00
2022-08-25T01:56:40.609Z,7.93
2022-08-25T01:59:07.309Z,9.23
2022-08-25T02:01:34.545Z,8.25
2022-08-25T02:04:01.478Z,8.20
2022-08-25T02:06:33.177Z,8.27
2022-08-25T02:09:05.037Z,8.98
2022-08-25T02:11:33.849Z,7.15
2022-08-25T02:14:01.205Z,9.10
2022-08-25T02:16:34.367Z,8.05
2022-08-25T02:19:01.911Z,7.63
2022-08-25T02:21:28.749Z,8.13
2022-08-25T02:23:57.000Z,8.10
2022-08-25T02:26:24.029Z,8.15
2022-08-25T02:28:52.225Z,8.55
2022-08-25T02:31:22.593Z,8.98
2022-08-25T02:33:50.267Z,8.48
2022-08-25T02:36:17.326Z,8.52
2022-08-25T02:38:44.772Z,8.27
2022-08-25T02:41:14.826Z,8.68
2022-08-25T02:43:43.335Z,8.45
2022-08-25T02:46:12.116Z,9.18
2022-08-25T02:48:40.043Z,7.97
2022-08-25T02:51:08.896Z,8.13
2022-08-25T02:53:36.900Z,7.88
2022-08-25T02:56:03.821Z,8.55
2022-08-25T02:58:30.527Z,8.25
2022-08-25T03:00:57.338Z,8.88
2022-08-25T03:03:24.301Z,11.00
2022-08-25T03:05:51.050Z,8.95
2022-08-25T03:08:18.038Z,9.80
2022-08-25T03:10:44.819Z,9.23
2022-08-25T03:13:11.510Z,9.13
2022-08-25T03:15:38.622Z,9.90
2022-08-25T03:18:06.330Z,9.70
2022-08-25T03:20:35.780Z,8.02
2022-08-25T03:23:03.126Z,8.02
2022-08-25T03:25:48.290Z,8.68
2022-08-25T03:28:15.209Z,9.52
2022-08-25T03:30:42.918Z,9.07
2022-08-25T03:33:10.616Z,8.48
2022-08-25T03:35:37.683Z,9.30
2022-08-25T03:38:05.589Z,9.38
2022-08-25T03:40:33.154Z,9.07
2022-08-25T03:43:00.279Z,8.90
2022-08-25T03:45:28.220Z,8.55
2022-08-25T03:47:55.080Z,8.00
2022-08-25T03:50:23.392Z,8.35
2022-08-25T03:52:55.162Z,8.63
2022-08-25T03:55:24.080Z,8.73
2022-08-25T03:57:52.136Z,8.45
2022-08-25T04:00:19.334Z,8.43
2022-08-25T04:02:46.227Z,8.43
2022-08-25T04:05:13.250Z,8.52
2022-08-25T04:10:10.654Z,8.02
2022-08-25T04:12:37.919Z,9.23
2022-08-25T04:15:05.958Z,8.80
2022-08-25T04:17:32.976Z,8.00
2022-08-25T04:20:01.980Z,9.10
2022-08-25T04:22:29.882Z,8.50
2022-08-25T04:24:58.217Z,9.70
2022-08-25T04:27:25.966Z,8.68
2022-08-25T04:29:52.625Z,10.07
2022-08-25T04:32:19.945Z,10.35
2022-08-25T04:34:46.604Z,10.55
2022-08-25T04:37:13.292Z,9.50
2022-08-25T04:39:40.092Z,8.40
2022-08-25T04:42:06.989Z,8.85
2022-08-25T04:44:33.624Z,8.27
2022-08-25T04:47:01.832Z,10.20
2022-08-25T04:49:29.332Z,9.25
2022-08-25T04:51:57.499Z,9.40
2022-08-25T04:54:24.807Z,9.15
2022-08-25T04:56:54.323Z,11.68
2022-08-25T04:59:23.202Z,8.85
2022-08-25T05:01:58.260Z,8.68
2022-08-25T05:04:28.025Z,8.20
2022-08-25T05:06:55.813Z,8.65
2022-08-25T05:09:22.550Z,8.50
2022-08-25T05:11:49.258Z,8.07
2022-08-25T05:14:18.294Z,9.48
2022-08-25T05:16:45.546Z,9.82
2022-08-25T05:19:12.275Z,10.57
2022-08-25T05:21:39.476Z,9.18
2022-08-25T05:24:07.051Z,8.85
2022-08-25T05:26:34.945Z,8.27
2022-08-25T05:29:04.659Z,9.10
2022-08-25T05:31:33.160Z,8.32
2022-08-25T05:34:00.560Z,9.33
2022-08-25T05:36:29.731Z,8.52
2022-08-25T05:38:56.418Z,7.82
2022-08-25T05:41:27.207Z,8.18
2022-08-25T05:43:54.357Z,9.45
2022-08-25T05:46:21.966Z,8.27
2022-08-25T05:48:49.316Z,8.18
2022-08-25T05:51:16.635Z,7.95
2022-08-25T05:53:46.659Z,8.82
2022-08-25T05:56:14.262Z,8.50
2022-08-25T05:58:42.855Z,9.43
2022-08-25T06:01:29.518Z,8.73
2022-08-25T06:03:56.477Z,8.07
2022-08-25T06:06:24.550Z,8.23
2022-08-25T06:08:51.988Z,8.20
2022-08-25T06:11:19.729Z,9.68
2022-08-25T06:13:46.766Z,9.20
2022-08-25T06:16:13.622Z,8.30
2022-08-25T06:18:40.397Z,9.40
2022-08-25T06:21:09.713Z,8.80
2022-08-25T06:23:37.429Z,8.27
2022-08-25T06:26:05.343Z,11.73
2022-08-25T06:28:32.074Z,8.73
2022-08-25T06:31:00.415Z,8.43
2022-08-25T06:33:27.499Z,9.02
2022-08-25T06:35:59.602Z,8.73
2022-08-25T06:38:27.153Z,7.47
2022-08-25T06:40:54.070Z,8.13
2022-08-25T06:43:21.692Z,9.20
2022-08-25T06:45:48.666Z,8.60
2022-08-25T06:48:16.017Z,9.32
2022-08-25T06:50:43.749Z,8.05
2022-08-25T06:53:10.723Z,8.07
2022-08-25T06:55:37.641Z,8.55
2022-08-25T06:58:05.549Z,8.57
2022-08-25T07:00:37.495Z,9.05
2022-08-25T07:03:05.066Z,9.38
2022-08-25T07:08:11.895Z,9.35
2022-08-25T07:10:39.076Z,9.02
2022-08-25T07:13:05.771Z,8.82
2022-08-25T07:15:32.520Z,10.18
2022-08-25T07:18:00.460Z,11.45
2022-08-25T07:20:27.327Z,9.32
2022-08-25T07:22:54.235Z,10.25
2022-08-25T07:25:20.992Z,8.82
2022-08-25T07:27:47.839Z,10.18
2022-08-25T07:30:14.688Z,9.30
2022-08-25T07:32:42.194Z,8.88
2022-08-25T07:35:20.653Z,8.85
2022-08-25T07:37:53.760Z,8.90
2022-08-25T07:40:24.869Z,9.57
2022-08-25T07:42:54.533Z,9.73
2022-08-25T07:45:30.198Z,9.95
2022-08-25T07:48:09.147Z,8.65
2022-08-25T07:50:38.977Z,8.77
2022-08-25T07:53:06.743Z,10.20
2022-08-25T07:55:36.489Z,9.10
2022-08-25T07:58:06.453Z,9.88
2022-08-25T08:00:36.838Z,9.13
2022-08-25T08:03:12.835Z,9.57
2022-08-25T08:05:47.430Z,8.77
2022-08-25T08:11:03.232Z,9.40
2022-08-25T08:13:33.175Z,9.15
2022-08-25T08:16:01.614Z,9.38
2022-08-25T08:18:28.876Z,8.82
2022-08-25T08:20:55.591Z,10.23
2022-08-25T08:23:27.814Z,10.38
2022-08-25T08:25:54.573Z,8.98
2022-08-25T08:28:21.706Z,9.88
2022-08-25T08:30:53.712Z,8.40
2022-08-25T08:33:22.049Z,9.52
2022-08-25T08:35:55.194Z,7.93
2022-08-25T08:38:27.202Z,7.57
2022-08-25T08:42:07.219Z,8.65
2022-08-25T08:44:44.882Z,8.18
2022-08-25T08:47:34.249Z,7.75
2022-08-25T08:50:23.954Z,8.63
2022-08-25T08:53:06.949Z,8.05
2022-08-25T08:55:43.238Z,9.27
2022-08-25T08:58:20.314Z,7.82
2022-08-25T09:00:56.158Z,8.48
2022-08-25T09:03:39.761Z,8.30
2022-08-25T09:06:29.820Z,8.07
2022-08-25T09:09:02.122Z,8.38
2022-08-25T09:11:48.132Z,8.98
2022-08-25T09:14:42.110Z,18.88
2022-08-25T09:17:54.311Z,8.52
2022-08-25T09:20:46.758Z,9.00
2022-08-25T09:23:20.211Z,9.88
2022-08-25T09:26:19.890Z,9.20
2022-08-25T09:28:54.104Z,10.20
2022-08-25T09:31:29.366Z,9.55
2022-08-25T09:33:58.560Z,9.55
2022-08-25T09:36:27.038Z,10.77
2022-08-25T09:38:53.742Z,10.70
2022-08-25T09:41:43.130Z,10.68
2022-08-25T09:44:28.626Z,9.73
2022-08-25T09:47:16.025Z,9.52
2022-08-25T09:49:49.557Z,11.25
2022-08-25T09:52:28.930Z,10.10
2022-08-25T09:55:01.597Z,10.60
2022-08-25T09:57:32.740Z,10.63
2022-08-25T10:00:18.627Z,10.55
2022-08-25T10:03:09.328Z,11.70
2022-08-25T10:05:48.364Z,10.85
2022-08-25T10:11:15.242Z,10.75
2022-08-25T10:13:46.953Z,9.30
2022-08-25T10:16:34.496Z,10.25
2022-08-25T10:19:25.281Z,8.82
2022-08-25T10:22:20.602Z,9.05
2022-08-25T10:24:49.602Z,10.02
2022-08-25T10:27:58.830Z,9.93
2022-08-25T10:30:49.852Z,9.57
2022-08-25T10:33:51.589Z,8.77
2022-08-25T10:36:23.215Z,9.10
2022-08-25T10:38:57.645Z,9.63
2022-08-25T10:41:36.385Z,9.18
2022-08-25T10:44:03.560Z,9.02
2022-08-25T10:46:41.907Z,8.02
2022-08-25T10:49:23.940Z,8.02
2022-08-25T10:52:16.658Z,9.23
2022-08-25T10:55:05.813Z,8.32
2022-08-25T10:57:47.317Z,10.52
2022-08-25T11:00:14.161Z,7.63
2022-08-25T11:03:03.387Z,7.95
2022-08-25T11:05:46.645Z,8.88
2022-08-25T11:08:43.902Z,8.18
2022-08-25T11:13:50.745Z,9.32
2022-08-25T11:16:25.548Z,9.18
2022-08-25T11:19:05.419Z,8.27
2022-08-25T11:21:46.021Z,9.00
2022-08-25T11:24:36.256Z,8.23
2022-08-25T11:27:10.202Z,7.80
2022-08-25T11:29:43.905Z,8.40
2022-08-25T11:32:11.163Z,8.40
2022-08-25T11:34:43.472Z,7.90
2022-08-25T11:37:28.041Z,9.13
2022-08-25T11:40:11.132Z,7.68
2022-08-25T11:42:53.440Z,9.15
2022-08-25T11:45:35.237Z,7.45
2022-08-25T11:48:16.894Z,10.35
2022-08-25T11:51:05.993Z,7.78
2022-08-25T11:53:35.855Z,8.25
2022-08-25T11:56:31.633Z,7.50
2022-08-25T11:58:59.566Z,6.45
2022-08-25T12:01:32.705Z,7.25
2022-08-25T12:04:44.327Z,7.07
2022-08-25T12:07:14.977Z,7.15
2022-08-25T12:09:49.087Z,6.18
2022-08-25T12:12:55.456Z,6.03
2022-08-25T12:15:30.260Z,6.90
2022-08-25T12:18:32.232Z,6.97
2022-08-25T12:20:58.911Z,7.10
2022-08-25T12:23:54.272Z,6.43
2022-08-25T12:26:35.592Z,7.55
2022-08-25T12:29:10.618Z,6.80
2022-08-25T12:32:07.103Z,7.07
2022-08-25T12:35:10.974Z,6.85
2022-08-25T12:38:02.931Z,7.53
2022-08-25T12:40:48.045Z,6.68
2022-08-25T12:43:25.002Z,7.20
2022-08-25T12:46:31.094Z,6.20
2022-08-25T12:49:00.558Z,6.32
2022-08-25T12:51:48.668Z,6.40
2022-08-25T12:54:40.590Z,6.30
2022-08-25T12:58:01.029Z,6.72
2022-08-25T13:00:52.471Z,6.80
2022-08-25T13:06:26.862Z,6.65
2022-08-25T13:09:15.059Z,6.35
2022-08-25T13:11:56.930Z,6.75
2022-08-25T13:14:44.014Z,6.75
2022-08-25T13:17:11.930Z,5.97
2022-08-25T13:19:38.648Z,5.75
2022-08-25T13:22:16.043Z,6.28
2022-08-25T13:24:45.603Z,5.93
2022-08-25T13:27:24.718Z,5.65
2022-08-25T13:32:32.262Z,5.63
2022-08-25T13:35:20.006Z,5.68
2022-08-25T13:37:47.302Z,6.10
2022-08-25T13:40:25.891Z,5.38
2022-08-25T13:43:01.077Z,5.65
2022-08-25T13:45:41.079Z,5.85
2022-08-25T13:48:22.509Z,6.00
2022-08-25T13:50:52.667Z,5.53
2022-08-25T13:53:30.391Z,5.35
2022-08-25T13:56:00.137Z,5.70
2022-08-25T13:58:44.439Z,5.07
2022-08-25T14:01:23.233Z,6.05
2022-08-25T14:04:23.612Z,5.53
2022-08-25T14:07:25.513Z,5.57
2022-08-25T14:10:05.013Z,5.95
2022-08-25T14:12:47.682Z,5.57
2022-08-25T14:15:17.702Z,5.20
2022-08-25T14:17:48.735Z,6.63
2022-08-25T14:20:29.163Z,6.28
2022-08-25T14:22:59.433Z,6.35
2022-08-25T14:25:32.622Z,6.35
2022-08-25T14:28:08.129Z,6.35
2022-08-25T14:30:39.879Z,6.63
2022-08-25T14:33:10.959Z,6.03
2022-08-25T14:35:38.167Z,5.83
2022-08-25T14:38:10.250Z,5.78
2022-08-25T14:40:38.095Z,5.82
2022-08-25T14:43:05.127Z,5.95
2022-08-25T14:45:42.582Z,6.53
2022-08-25T14:48:15.345Z,6.05
2022-08-25T14:50:45.028Z,6.05
2022-08-25T14:53:11.922Z,6.43
2022-08-25T14:55:39.750Z,5.70
2022-08-25T14:58:06.922Z,6.88
2022-08-25T15:00:37.344Z,6.22
2022-08-25T15:03:04.195Z,6.00
2022-08-25T15:05:32.169Z,5.65
2022-08-25T15:08:17.646Z,5.60
2022-08-25T15:10:44.468Z,4.55
2022-08-25T15:13:11.171Z,5.47
2022-08-25T15:15:52.435Z,5.20
2022-08-25T15:18:22.236Z,6.13
2022-08-25T15:20:51.191Z,4.88
2022-08-25T15:23:19.311Z,5.95
2022-08-25T15:25:52.749Z,5.57
2022-08-25T15:28:22.227Z,4.93
2022-08-25T15:30:50.848Z,5.68
2022-08-25T15:33:17.750Z,4.97
2022-08-25T15:35:45.130Z,5.93
2022-08-25T15:38:12.639Z,4.72
2022-08-25T15:40:40.167Z,5.60
2022-08-25T15:43:07.428Z,5.95
2022-08-25T15:45:36.379Z,4.70
2022-08-25T15:48:09.255Z,4.68
2022-08-25T15:50:36.338Z,4.63
2022-08-25T15:53:03.204Z,6.15
2022-08-25T15:55:30.431Z,5.70
2022-08-25T15:58:00.505Z,4.68
2022-08-25T16:00:27.683Z,5.78
2022-08-25T16:02:58.553Z,4.57
2022-08-25T16:05:27.057Z,6.63
2022-08-25T16:07:56.089Z,5.65
2022-08-25T16:10:23.668Z,5.45
2022-08-25T16:12:50.369Z,5.68
2022-08-25T16:15:17.101Z,5.85
2022-08-25T16:17:45.914Z,5.53
2022-08-25T16:20:17.257Z,5.50
2022-08-25T16:22:44.984Z,4.70
2022-08-25T16:25:11.866Z,5.53
2022-08-25T16:27:39.213Z,5.63
2022-08-25T16:30:08.143Z,5.60
2022-08-25T16:32:35.653Z,6.30
2022-08-25T16:35:03.472Z,5.47
2022-08-25T16:37:30.830Z,5.72
2022-08-25T16:39:58.165Z,6.18
2022-08-25T16:42:26.969Z,5.10
2022-08-25T16:44:55.955Z,5.75
2022-08-25T16:47:25.141Z,5.57
2022-08-25T16:49:54.328Z,6.05
2022-08-25T16:52:40.557Z,6.05
2022-08-25T16:55:14.422Z,6.85
2022-08-25T16:57:43.863Z,6.63
2022-08-25T17:00:14.189Z,6.57
2022-08-25T17:02:42.871Z,5.95
2022-08-25T17:05:10.744Z,6.38
2022-08-25T17:07:37.786Z,7.43
2022-08-25T17:10:06.548Z,6.82
2022-08-25T17:12:40.446Z,7.30
2022-08-25T17:15:07.709Z,7.03
2022-08-25T17:17:37.261Z,8.23
2022-08-25T17:20:04.646Z,6.80
2022-08-25T17:22:32.209Z,22.02
2022-08-25T17:25:00.656Z,7.75
2022-08-25T17:27:28.096Z,8.40
2022-08-25T17:29:55.942Z,6.88
2022-08-25T17:32:30.221Z,7.82
2022-08-25T17:34:57.880Z,7.72
2022-08-25T17:37:24.925Z,8.00
2022-08-25T17:39:57.461Z,7.32
2022-08-25T17:42:30.357Z,7.30
2022-08-25T17:44:58.047Z,6.27
2022-08-25T17:47:24.847Z,8.00
2022-08-25T17:49:51.683Z,7.15
2022-08-25T17:52:19.891Z,6.95
2022-08-25T17:54:49.503Z,6.45
2022-08-25T17:57:19.313Z,7.22
2022-08-25T17:59:46.107Z,7.22
2022-08-25T18:02:13.126Z,9.32
2022-08-25T18:04:40.325Z,7.60
2022-08-25T18:07:07.486Z,7.00
2022-08-25T18:09:34.579Z,8.43
2022-08-25T18:12:01.480Z,40.83
2022-08-25T18:14:28.360Z,164.77
2022-08-25T18:16:55.489Z,94.95
2022-08-25T18:19:22.650Z,51.72
2022-08-25T18:21:49.395Z,23.33
2022-08-25T18:26:45.944Z,10.40
2022-08-25T18:29:13.350Z,8.60
2022-08-25T18:31:41.760Z,10.52
2022-08-25T18:34:11.253Z,9.48
2022-08-25T18:36:39.210Z,9.05
2022-08-25T18:39:25.960Z,8.60
2022-08-25T18:41:52.644Z,8.60
2022-08-25T18:44:19.806Z,8.90
2022-08-25T18:46:46.728Z,8.75
2022-08-25T18:49:15.869Z,9.32
2022-08-25T18:51:45.950Z,8.63
2022-08-25T18:54:19.025Z,8.80
2022-08-25T18:56:49.647Z,11.60
2022-08-25T18:59:17.563Z,8.25
2022-08-25T19:01:44.852Z,8.23
2022-08-25T19:04:13.666Z,8.98
2022-08-25T19:06:40.467Z,8.90
2022-08-25T19:09:12.190Z,9.50
2022-08-25T19:11:40.608Z,9.35
2022-08-25T19:14:12.403Z,9.77
2022-08-25T19:16:42.525Z,8.68
2022-08-25T19:19:13.333Z,8.85
2022-08-25T19:21:43.028Z,10.57
2022-08-25T19:24:13.659Z,8.93
2022-08-25T19:26:41.931Z,9.10
2022-08-25T19:29:13.646Z,9.35
2022-08-25T19:31:42.018Z,8.65
2022-08-25T19:34:13.256Z,10.63
2022-08-25T19:36:43.964Z,9.32
2022-08-25T19:39:12.786Z,9.23
2022-08-25T19:41:40.432Z,10.50
2022-08-25T19:44:08.795Z,15.57
2022-08-25T19:46:37.687Z,9.52
2022-08-25T19:49:12.394Z,9.00
2022-08-25T19:51:44.079Z,10.40
2022-08-25T19:54:14.622Z,8.25
2022-08-25T19:56:54.911Z,8.38
2022-08-25T19:59:42.706Z,9.65
2022-08-25T20:02:25.333Z,8.07
2022-08-25T20:04:59.393Z,9.00
2022-08-25T20:07:28.812Z,8.20
2022-08-25T20:09:58.563Z,8.60
2022-08-25T20:12:25.959Z,8.05
2022-08-25T20:14:53.719Z,8.73
2022-08-25T20:17:24.712Z,9.07
2022-08-25T20:19:58.935Z,9.13
2022-08-25T20:22:27.531Z,10.05
2022-08-25T20:24:58.016Z,9.03
2022-08-25T20:27:34.577Z,9.63
2022-08-25T20:30:07.124Z,8.70
2022-08-25T20:32:34.101Z,8.30
2022-08-25T20:35:02.041Z,9.98
2022-08-25T20:37:28.963Z,9.38
2022-08-25T20:39:56.227Z,9.15
2022-08-25T20:42:22.939Z,8.95
2022-08-25T20:44:49.908Z,10.63
2022-08-25T20:47:20.649Z,9.32
2022-08-25T20:49:48.109Z,9.52
2022-08-25T20:52:15.999Z,9.02
2022-08-25T20:54:49.389Z,10.93
2022-08-25T20:57:19.468Z,9.52
2022-08-25T20:59:52.741Z,9.55
2022-08-25T21:02:20.129Z,9.52
2022-08-25T21:04:50.108Z,9.00
2022-08-25T21:07:17.683Z,10.43
2022-08-25T21:09:44.708Z,10.35
2022-08-25T21:12:11.747Z,9.77
2022-08-25T21:14:40.864Z,9.80
2022-08-25T21:17:10.709Z,9.32
2022-08-25T21:19:38.917Z,9.73
2022-08-25T21:22:06.734Z,10.20
2022-08-25T21:24:33.668Z,10.27
2022-08-25T21:27:01.105Z,10.32
2022-08-25T21:29:28.786Z,9.50
2022-08-25T21:31:58.786Z,11.45
2022-08-25T21:34:28.269Z,10.27
2022-08-25T21:39:28.268Z,10.20
2022-08-25T21:41:58.607Z,10.17
2022-08-25T21:44:27.978Z,9.90
2022-08-25T21:46:55.099Z,10.43
2022-08-25T21:49:23.444Z,10.18
2022-08-25T21:52:00.267Z,10.43
2022-08-25T21:54:28.958Z,10.80
2022-08-25T21:56:59.856Z,9.52
2022-08-25T21:59:36.799Z,10.68
2022-08-25T22:02:08.979Z,9.80
2022-08-25T22:04:37.198Z,11.70
2022-08-25T22:07:07.104Z,12.15
2022-08-25T22:09:35.457Z,10.88
2022-08-25T22:12:03.116Z,11.10
2022-08-25T22:14:32.248Z,10.35
2022-08-25T22:19:27.358Z,10.25
2022-08-25T22:21:55.632Z,10.60
2022-08-25T22:24:22.345Z,11.98
2022-08-25T22:26:49.474Z,11.85
2022-08-25T22:29:25.562Z,10.88
2022-08-25T22:32:00.644Z,10.95
2022-08-25T22:34:32.116Z,10.70
2022-08-25T22:37:03.576Z,11.80
2022-08-25T22:39:31.409Z,11.75
2022-08-25T22:41:59.015Z,12.13
2022-08-25T22:44:27.831Z,10.73
2022-08-25T22:46:54.985Z,11.02
2022-08-25T22:49:21.976Z,10.95
2022-08-25T22:51:49.042Z,11.43
2022-08-25T22:54:15.883Z,11.40
2022-08-25T22:56:43.450Z,11.13
2022-08-25T22:59:12.484Z,11.00
2022-08-25T23:01:39.795Z,10.23
2022-08-25T23:04:07.779Z,11.63
2022-08-25T23:06:35.263Z,10.88
2022-08-25T23:09:06.424Z,10.55
2022-08-25T23:11:33.761Z,11.35
2022-08-25T23:14:00.677Z,11.52
2022-08-25T23:16:32.082Z,11.10
2022-08-25T23:18:59.266Z,10.98
2022-08-25T23:21:46.897Z,11.15
2022-08-25T23:24:29.382Z,11.70
2022-08-25T23:27:02.023Z,11.80
2022-08-25T23:29:30.325Z,11.23
2022-08-25T23:31:58.489Z,11.43
2022-08-25T23:34:26.096Z,11.55
2022-08-25T23:36:53.142Z,11.75
2022-08-25T23:39:21.918Z,12.05
2022-08-25T23:41:49.552Z,11.55
2022-08-25T23:44:17.593Z,11.77
2022-08-25T23:46:47.182Z,11.73
2022-08-25T23:49:14.777Z,12.77
2022-08-25T23:51:47.561Z,14.38
2022-08-25T23:54:15.931Z,11.73
2022-08-25T23:56:51.384Z,12.10
2022-08-25T23:59:24.606Z,12.10
